sensor_id;sensor_type;location;lat;lon;timestamp;pressure;altitude;pressure_sealevel;temperature;humidity
31005;BME280;17676;52.254;4.490;2023-04-03T00:01:50;102983.97;;;5.59;100.00
31005;BME280;17676;52.254;4.490;2023-04-03T00:04:54;102970.91;;;5.54;100.00
31005;BME280;17676;52.254;4.490;2023-04-03T00:07:21;102979.59;;;5.47;100.00
31005;BME280;17676;52.254;4.490;2023-04-03T00:09:47;102975.78;;;5.49;100.00
31005;BME280;17676;52.254;4.490;2023-04-03T00:12:13;102962.47;;;5.36;100.00
31005;BME280;17676;52.254;4.490;2023-04-03T00:14:38;102960.53;;;5.27;100.00
31005;BME280;17676;52.254;4.490;2023-04-03T00:17:05;102957.38;;;5.33;100.00
31005;BME280;17676;52.254;4.490;2023-04-03T00:19:32;102959.44;;;5.41;100.00
31005;BME280;17676;52.254;4.490;2023-04-03T00:21:59;102978.13;;;5.43;100.00
31005;BME280;17676;52.254;4.490;2023-04-03T00:24:25;102950.78;;;5.26;100.00
31005;BME280;17676;52.254;4.490;2023-04-03T00:26:51;102963.47;;;5.24;100.00
31005;BME280;17676;52.254;4.490;2023-04-03T00:29:17;102977.41;;;5.29;100.00
31005;BME280;17676;52.254;4.490;2023-04-03T00:31:43;102973.72;;;5.30;100.00
31005;BME280;17676;52.254;4.490;2023-04-03T00:34:14;102979.22;;;5.40;100.00
31005;BME280;17676;52.254;4.490;2023-04-03T00:36:39;102956.16;;;5.26;100.00
31005;BME280;17676;52.254;4.490;2023-04-03T00:39:07;102960.28;;;5.19;100.00
31005;BME280;17676;52.254;4.490;2023-04-03T00:41:35;102987.78;;;5.23;100.00
31005;BME280;17676;52.254;4.490;2023-04-03T00:44:16;102970.56;;;5.25;100.00
31005;BME280;17676;52.254;4.490;2023-04-03T00:46:42;102977.13;;;5.10;100.00
31005;BME280;17676;52.254;4.490;2023-04-03T00:49:08;102972.88;;;5.08;100.00
31005;BME280;17676;52.254;4.490;2023-04-03T00:51:34;102986.91;;;5.22;100.00
31005;BME280;17676;52.254;4.490;2023-04-03T00:54:02;102985.94;;;5.12;100.00
31005;BME280;17676;52.254;4.490;2023-04-03T00:56:30;102990.31;;;5.13;100.00
31005;BME280;17676;52.254;4.490;2023-04-03T00:59:00;102981.53;;;5.11;100.00
31005;BME280;17676;52.254;4.490;2023-04-03T01:01:31;102987.88;;;5.21;100.00
31005;BME280;17676;52.254;4.490;2023-04-03T01:04:01;102982.28;;;5.13;100.00
31005;BME280;17676;52.254;4.490;2023-04-03T01:06:30;102986.91;;;5.22;100.00
31005;BME280;17676;52.254;4.490;2023-04-03T01:08:59;102983.97;;;5.14;100.00
31005;BME280;17676;52.254;4.490;2023-04-03T01:11:26;103003.13;;;5.32;100.00
31005;BME280;17676;52.254;4.490;2023-04-03T01:13:53;103003.13;;;5.32;100.00
31005;BME280;17676;52.254;4.490;2023-04-03T01:16:19;102988.84;;;5.20;100.00
31005;BME280;17676;52.254;4.490;2023-04-03T01:18:50;103003.13;;;5.21;100.00
31005;BME280;17676;52.254;4.490;2023-04-03T01:21:43;102988.09;;;5.07;100.00
31005;BME280;17676;52.254;4.490;2023-04-03T01:26:50;102984.47;;;5.08;100.00
31005;BME280;17676;52.254;4.490;2023-04-03T01:29:16;102982.72;;;5.07;100.00
31005;BME280;17676;52.254;4.490;2023-04-03T01:31:53;103006.31;;;5.15;100.00
31005;BME280;17676;52.254;4.490;2023-04-03T01:34:19;102999.19;;;5.14;100.00
31005;BME280;17676;52.254;4.490;2023-04-03T01:36:45;103003.25;;;5.08;100.00
31005;BME280;17676;52.254;4.490;2023-04-03T01:39:12;102989.84;;;5.08;100.00
31005;BME280;17676;52.254;4.490;2023-04-03T01:41:38;102982.25;;;5.02;100.00
31005;BME280;17676;52.254;4.490;2023-04-03T01:44:04;103002.72;;;5.03;100.00
31005;BME280;17676;52.254;4.490;2023-04-03T01:46:30;102978.09;;;4.98;100.00
31005;BME280;17676;52.254;4.490;2023-04-03T01:48:55;102985.44;;;4.96;100.00
31005;BME280;17676;52.254;4.490;2023-04-03T01:51:21;102979.53;;;4.80;100.00
31005;BME280;17676;52.254;4.490;2023-04-03T01:53:47;103007.13;;;4.93;100.00
31005;BME280;17676;52.254;4.490;2023-04-03T01:56:13;103001.25;;;4.88;100.00
31005;BME280;17676;52.254;4.490;2023-04-03T01:58:40;102994.16;;;4.76;100.00
31005;BME280;17676;52.254;4.490;2023-04-03T02:01:06;102992.44;;;4.75;100.00
31005;BME280;17676;52.254;4.490;2023-04-03T02:03:32;102987.78;;;4.66;100.00
31005;BME280;17676;52.254;4.490;2023-04-03T02:05:59;103003.78;;;4.79;100.00
31005;BME280;17676;52.254;4.490;2023-04-03T02:08:29;103001.00;;;4.80;100.00
31005;BME280;17676;52.254;4.490;2023-04-03T02:11:04;103005.00;;;4.86;100.00
31005;BME280;17676;52.254;4.490;2023-04-03T02:13:34;103008.28;;;4.78;100.00
31005;BME280;17676;52.254;4.490;2023-04-03T02:16:15;103016.22;;;4.80;100.00
31005;BME280;17676;52.254;4.490;2023-04-03T02:18:48;103015.34;;;4.79;100.00
31005;BME280;17676;52.254;4.490;2023-04-03T02:24:16;103022.19;;;4.72;100.00
31005;BME280;17676;52.254;4.490;2023-04-03T02:26:45;103028.75;;;4.68;100.00
31005;BME280;17676;52.254;4.490;2023-04-03T02:29:12;103027.03;;;4.67;100.00
31005;BME280;17676;52.254;4.490;2023-04-03T02:34:56;103036.88;;;4.56;100.00
31005;BME280;17676;52.254;4.490;2023-04-03T02:37:26;103032.53;;;4.42;100.00
31005;BME280;17676;52.254;4.490;2023-04-03T02:43:31;103012.78;;;4.43;100.00
31005;BME280;17676;52.254;4.490;2023-04-03T02:45:58;103017.94;;;4.46;100.00
31005;BME280;17676;52.254;4.490;2023-04-03T02:48:31;103033.56;;;4.52;100.00
31005;BME280;17676;52.254;4.490;2023-04-03T02:51:02;103041.34;;;4.44;100.00
31005;BME280;17676;52.254;4.490;2023-04-03T02:53:34;103016.66;;;4.39;100.00
31005;BME280;17676;52.254;4.490;2023-04-03T02:56:01;103024.38;;;4.44;100.00
31005;BME280;17676;52.254;4.490;2023-04-03T02:58:27;103023.41;;;4.45;100.00
31005;BME280;17676;52.254;4.490;2023-04-03T03:00:54;103014.56;;;4.32;100.00
31005;BME280;17676;52.254;4.490;2023-04-03T03:03:20;103038.97;;;4.40;100.00
31005;BME280;17676;52.254;4.490;2023-04-03T03:05:47;103017.25;;;4.32;100.00
31005;BME280;17676;52.254;4.490;2023-04-03T03:08:13;103041.78;;;4.38;100.00
31005;BME280;17676;52.254;4.490;2023-04-03T03:10:39;103019.66;;;4.24;100.00
31005;BME280;17676;52.254;4.490;2023-04-03T03:13:04;103027.06;;;4.20;100.00
31005;BME280;17676;52.254;4.490;2023-04-03T03:15:30;103045.88;;;4.31;100.00
31005;BME280;17676;52.254;4.490;2023-04-03T03:17:56;103032.44;;;4.20;100.00
31005;BME280;17676;52.254;4.490;2023-04-03T03:20:25;103033.38;;;4.19;100.00
31005;BME280;17676;52.254;4.490;2023-04-03T03:22:50;103052.84;;;4.34;100.00
31005;BME280;17676;52.254;4.490;2023-04-03T03:25:19;103053.47;;;4.37;100.00
31005;BME280;17676;52.254;4.490;2023-04-03T03:27:45;103055.75;;;4.31;100.00
31005;BME280;17676;52.254;4.490;2023-04-03T03:30:11;103037.78;;;4.20;100.00
31005;BME280;17676;52.254;4.490;2023-04-03T03:32:38;103044.09;;;4.19;100.00
31005;BME280;17676;52.254;4.490;2023-04-03T03:35:03;103037.22;;;4.04;100.00
31005;BME280;17676;52.254;4.490;2023-04-03T03:37:30;103032.69;;;4.05;100.00
31005;BME280;17676;52.254;4.490;2023-04-03T03:39:55;103038.41;;;4.00;100.00
31005;BME280;17676;52.254;4.490;2023-04-03T03:42:22;103047.16;;;4.02;100.00
31005;BME280;17676;52.254;4.490;2023-04-03T03:44:48;103038.91;;;4.05;100.00
31005;BME280;17676;52.254;4.490;2023-04-03T03:47:15;103023.06;;;4.02;100.00
31005;BME280;17676;52.254;4.490;2023-04-03T03:49:41;103043.69;;;4.13;100.00
31005;BME280;17676;52.254;4.490;2023-04-03T03:52:07;103047.69;;;4.07;100.00
31005;BME280;17676;52.254;4.490;2023-04-03T03:54:37;103038.69;;;4.08;100.00
31005;BME280;17676;52.254;4.490;2023-04-03T03:57:03;103047.47;;;4.10;100.00
31005;BME280;17676;52.254;4.490;2023-04-03T03:59:30;103039.34;;;3.99;100.00
31005;BME280;17676;52.254;4.490;2023-04-03T04:01:56;103032.75;;;3.92;100.00
31005;BME280;17676;52.254;4.490;2023-04-03T04:04:22;103047.09;;;3.91;100.00
31005;BME280;17676;52.254;4.490;2023-04-03T04:06:48;103045.34;;;4.03;100.00
31005;BME280;17676;52.254;4.490;2023-04-03T04:09:14;103029.00;;;3.82;100.00
31005;BME280;17676;52.254;4.490;2023-04-03T04:11:42;103026.84;;;3.87;100.00
31005;BME280;17676;52.254;4.490;2023-04-03T04:14:08;103031.78;;;3.93;100.00
31005;BME280;17676;52.254;4.490;2023-04-03T04:16:36;103050.16;;;4.10;100.00
31005;BME280;17676;52.254;4.490;2023-04-03T04:19:02;103047.94;;;4.04;100.00
31005;BME280;17676;52.254;4.490;2023-04-03T04:21:27;103050.31;;;3.96;100.00
31005;BME280;17676;52.254;4.490;2023-04-03T04:23:54;103041.72;;;3.91;100.00
31005;BME280;17676;52.254;4.490;2023-04-03T04:26:20;103059.47;;;4.05;100.00
31005;BME280;17676;52.254;4.490;2023-04-03T04:28:46;103045.59;;;3.87;100.00
31005;BME280;17676;52.254;4.490;2023-04-03T04:31:12;103049.59;;;3.82;100.00
31005;BME280;17676;52.254;4.490;2023-04-03T04:33:38;103070.00;;;3.95;100.00
31005;BME280;17676;52.254;4.490;2023-04-03T04:36:10;103043.69;;;3.89;100.00
31005;BME280;17676;52.254;4.490;2023-04-03T04:38:39;103053.47;;;3.78;100.00
31005;BME280;17676;52.254;4.490;2023-04-03T04:41:05;103060.06;;;3.85;100.00
31005;BME280;17676;52.254;4.490;2023-04-03T04:43:33;103044.03;;;3.72;100.00
31005;BME280;17676;52.254;4.490;2023-04-03T04:46:07;103043.06;;;3.73;100.00
31005;BME280;17676;52.254;4.490;2023-04-03T04:48:36;103046.94;;;3.69;100.00
31005;BME280;17676;52.254;4.490;2023-04-03T04:51:11;103047.56;;;3.73;100.00
31005;BME280;17676;52.254;4.490;2023-04-03T04:54:09;103074.31;;;3.85;100.00
31005;BME280;17676;52.254;4.490;2023-04-03T04:57:00;103055.53;;;3.62;100.00
31005;BME280;17676;52.254;4.490;2023-04-03T04:59:55;103084.94;;;3.74;100.00
31005;BME280;17676;52.254;4.490;2023-04-03T05:02:54;103067.06;;;3.75;100.00
31005;BME280;17676;52.254;4.490;2023-04-03T05:05:45;103066.88;;;3.65;100.00
31005;BME280;17676;52.254;4.490;2023-04-03T05:08:19;103065.38;;;3.61;100.00
31005;BME280;17676;52.254;4.490;2023-04-03T05:10:47;103082.06;;;3.77;100.00
31005;BME280;17676;52.254;4.490;2023-04-03T05:13:17;103073.72;;;3.69;100.00
31005;BME280;17676;52.254;4.490;2023-04-03T05:15:46;103092.97;;;3.74;100.00
31005;BME280;17676;52.254;4.490;2023-04-03T05:18:14;103079.16;;;3.68;100.00
31005;BME280;17676;52.254;4.490;2023-04-03T05:20:44;103084.41;;;3.69;100.00
31005;BME280;17676;52.254;4.490;2023-04-03T05:23:12;103103.47;;;3.77;100.00
31005;BME280;17676;52.254;4.490;2023-04-03T05:25:39;103100.28;;;3.72;100.00
31005;BME280;17676;52.254;4.490;2023-04-03T05:28:06;103096.09;;;3.68;100.00
31005;BME280;17676;52.254;4.490;2023-04-03T05:30:35;103098.13;;;3.65;100.00
31005;BME280;17676;52.254;4.490;2023-04-03T05:33:01;103095.25;;;3.68;100.00
31005;BME280;17676;52.254;4.490;2023-04-03T05:35:27;103101.56;;;3.79;100.00
31005;BME280;17676;52.254;4.490;2023-04-03T05:37:53;103097.94;;;3.55;100.00
31005;BME280;17676;52.254;4.490;2023-04-03T05:40:58;103093.84;;;3.75;100.00
31005;BME280;17676;52.254;4.490;2023-04-03T05:43:24;103091.72;;;3.67;100.00
31005;BME280;17676;52.254;4.490;2023-04-03T05:45:52;103104.88;;;3.70;100.00
31005;BME280;17676;52.254;4.490;2023-04-03T05:48:19;103099.50;;;3.70;100.00
31005;BME280;17676;52.254;4.490;2023-04-03T05:50:46;103093.22;;;3.71;100.00
31005;BME280;17676;52.254;4.490;2023-04-03T05:53:26;103117.91;;;3.87;100.00
31005;BME280;17676;52.254;4.490;2023-04-03T05:55:53;103119.53;;;3.90;100.00
31005;BME280;17676;52.254;4.490;2023-04-03T05:58:19;103128.72;;;3.98;100.00
31005;BME280;17676;52.254;4.490;2023-04-03T06:00:46;103104.97;;;3.81;100.00
31005;BME280;17676;52.254;4.490;2023-04-03T06:03:13;103094.25;;;3.94;100.00
31005;BME280;17676;52.254;4.490;2023-04-03T06:05:38;103095.66;;;3.87;100.00
31005;BME280;17676;52.254;4.490;2023-04-03T06:08:05;103093.38;;;3.93;100.00
31005;BME280;17676;52.254;4.490;2023-04-03T06:10:32;103106.22;;;4.01;100.00
31005;BME280;17676;52.254;4.490;2023-04-03T06:12:57;103121.00;;;4.06;100.00
31005;BME280;17676;52.254;4.490;2023-04-03T06:15:23;103133.41;;;4.20;100.00
31005;BME280;17676;52.254;4.490;2023-04-03T06:17:55;103125.47;;;4.18;100.00
31005;BME280;17676;52.254;4.490;2023-04-03T06:20:22;103107.69;;;4.17;100.00
31005;BME280;17676;52.254;4.490;2023-04-03T06:22:49;103128.00;;;4.32;100.00
31005;BME280;17676;52.254;4.490;2023-04-03T06:25:16;103109.97;;;4.34;100.00
31005;BME280;17676;52.254;4.490;2023-04-03T06:27:46;103120.50;;;4.25;100.00
31005;BME280;17676;52.254;4.490;2023-04-03T06:30:13;103128.44;;;4.39;100.00
31005;BME280;17676;52.254;4.490;2023-04-03T06:32:41;103142.53;;;4.53;100.00
31005;BME280;17676;52.254;4.490;2023-04-03T06:35:08;103124.44;;;4.44;100.00
31005;BME280;17676;52.254;4.490;2023-04-03T06:37:35;103135.84;;;4.59;100.00
31005;BME280;17676;52.254;4.490;2023-04-03T06:40:01;103127.44;;;4.63;100.00
31005;BME280;17676;52.254;4.490;2023-04-03T06:42:26;103138.19;;;4.63;100.00
31005;BME280;17676;52.254;4.490;2023-04-03T06:44:52;103141.72;;;4.64;100.00
31005;BME280;17676;52.254;4.490;2023-04-03T06:47:18;103145.09;;;4.78;100.00
31005;BME280;17676;52.254;4.490;2023-04-03T06:49:44;103132.38;;;4.69;100.00
31005;BME280;17676;52.254;4.490;2023-04-03T06:52:10;103145.47;;;4.85;100.00
31005;BME280;17676;52.254;4.490;2023-04-03T06:54:40;103129.28;;;4.86;100.00
31005;BME280;17676;52.254;4.490;2023-04-03T06:57:06;103128.41;;;4.86;100.00
31005;BME280;17676;52.254;4.490;2023-04-03T06:59:32;103151.78;;;4.96;100.00
31005;BME280;17676;52.254;4.490;2023-04-03T07:01:58;103137.53;;;4.83;100.00
31005;BME280;17676;52.254;4.490;2023-04-03T07:04:25;103144.69;;;4.95;100.00
31005;BME280;17676;52.254;4.490;2023-04-03T07:06:50;103153.00;;;5.03;100.00
31005;BME280;17676;52.254;4.490;2023-04-03T07:09:23;103148.88;;;5.10;100.00
31005;BME280;17676;52.254;4.490;2023-04-03T07:11:49;103165.47;;;5.04;100.00
31005;BME280;17676;52.254;4.490;2023-04-03T07:14:15;103160.09;;;5.04;100.00
31005;BME280;17676;52.254;4.490;2023-04-03T07:16:41;103141.44;;;5.03;100.00
31005;BME280;17676;52.254;4.490;2023-04-03T07:19:06;103175.25;;;5.16;100.00
31005;BME280;17676;52.254;4.490;2023-04-03T07:21:35;103175.31;;;5.27;100.00
31005;BME280;17676;52.254;4.490;2023-04-03T07:24:01;103150.97;;;5.18;100.00
31005;BME280;17676;52.254;4.490;2023-04-03T07:26:27;103171.91;;;5.36;100.00
31005;BME280;17676;52.254;4.490;2023-04-03T07:28:53;103170.75;;;5.52;100.00
31005;BME280;17676;52.254;4.490;2023-04-03T07:31:22;103167.81;;;5.55;100.00
31005;BME280;17676;52.254;4.490;2023-04-03T07:34:05;103185.44;;;5.70;100.00
31005;BME280;17676;52.254;4.490;2023-04-03T07:36:37;103177.88;;;5.75;100.00
31005;BME280;17676;52.254;4.490;2023-04-03T07:39:03;103153.69;;;6.52;100.00
31005;BME280;17676;52.254;4.490;2023-04-03T07:41:32;103168.34;;;8.34;100.00
31005;BME280;17676;52.254;4.490;2023-04-03T07:43:58;103165.72;;;9.76;100.00
31005;BME280;17676;52.254;4.490;2023-04-03T07:46:24;103168.31;;;10.78;100.00
31005;BME280;17676;52.254;4.490;2023-04-03T07:48:50;103175.91;;;10.92;100.00
31005;BME280;17676;52.254;4.490;2023-04-03T07:51:16;103202.63;;;12.00;100.00
31005;BME280;17676;52.254;4.490;2023-04-03T07:53:48;103197.97;;;12.52;100.00
31005;BME280;17676;52.254;4.490;2023-04-03T07:56:14;103177.19;;;12.76;100.00
31005;BME280;17676;52.254;4.490;2023-04-03T07:58:44;103195.34;;;13.65;100.00
31005;BME280;17676;52.254;4.490;2023-04-03T08:01:10;103214.22;;;13.83;100.00
31005;BME280;17676;52.254;4.490;2023-04-03T08:03:43;103202.81;;;13.31;100.00
31005;BME280;17676;52.254;4.490;2023-04-03T08:06:10;103189.97;;;12.92;100.00
31005;BME280;17676;52.254;4.490;2023-04-03T08:08:36;103180.47;;;12.96;100.00
31005;BME280;17676;52.254;4.490;2023-04-03T08:11:04;103195.03;;;13.36;100.00
31005;BME280;17676;52.254;4.490;2023-04-03T08:13:31;103190.09;;;13.64;100.00
31005;BME280;17676;52.254;4.490;2023-04-03T08:15:57;103200.78;;;13.89;100.00
31005;BME280;17676;52.254;4.490;2023-04-03T08:18:24;103213.28;;;14.38;100.00
31005;BME280;17676;52.254;4.490;2023-04-03T08:20:52;103208.94;;;14.05;100.00
31005;BME280;17676;52.254;4.490;2023-04-03T08:23:19;103208.59;;;14.08;100.00
31005;BME280;17676;52.254;4.490;2023-04-03T08:25:45;103216.25;;;13.97;100.00
31005;BME280;17676;52.254;4.490;2023-04-03T08:28:12;103216.72;;;14.24;100.00
31005;BME280;17676;52.254;4.490;2023-04-03T08:30:40;103215.81;;;14.87;100.00
31005;BME280;17676;52.254;4.490;2023-04-03T08:33:09;103194.59;;;14.11;100.00
31005;BME280;17676;52.254;4.490;2023-04-03T08:35:41;103194.38;;;14.45;100.00
31005;BME280;17676;52.254;4.490;2023-04-03T08:38:12;103206.69;;;14.71;100.00
31005;BME280;17676;52.254;4.490;2023-04-03T08:40:40;103229.78;;;14.45;100.00
31005;BME280;17676;52.254;4.490;2023-04-03T08:46:05;103226.16;;;16.12;100.00
31005;BME280;17676;52.254;4.490;2023-04-03T08:48:40;103209.66;;;16.34;100.00
31005;BME280;17676;52.254;4.490;2023-04-03T08:51:15;103228.00;;;16.11;100.00
31005;BME280;17676;52.254;4.490;2023-04-03T08:54:06;103208.59;;;15.92;100.00
31005;BME280;17676;52.254;4.490;2023-04-03T08:56:31;103199.94;;;14.90;100.00
31005;BME280;17676;52.254;4.490;2023-04-03T08:59:05;103204.72;;;15.19;100.00
31005;BME280;17676;52.254;4.490;2023-04-03T09:01:36;103218.69;;;15.46;100.00
31005;BME280;17676;52.254;4.490;2023-04-03T09:04:13;103232.06;;;15.64;100.00
31005;BME280;17676;52.254;4.490;2023-04-03T09:06:53;103215.47;;;15.65;100.00
31005;BME280;17676;52.254;4.490;2023-04-03T09:09:36;103232.00;;;15.19;100.00
31005;BME280;17676;52.254;4.490;2023-04-03T09:12:24;103225.44;;;15.36;100.00
31005;BME280;17676;52.254;4.490;2023-04-03T09:23:40;103236.69;;;17.02;100.00
31005;BME280;17676;52.254;4.490;2023-04-03T09:26:29;103236.53;;;16.31;100.00
31005;BME280;17676;52.254;4.490;2023-04-03T09:28:59;103217.75;;;15.99;100.00
31005;BME280;17676;52.254;4.490;2023-04-03T09:31:29;103220.50;;;15.54;100.00
31005;BME280;17676;52.254;4.490;2023-04-03T09:34:06;103222.75;;;14.58;96.05
31005;BME280;17676;52.254;4.490;2023-04-03T09:36:39;103210.81;;;13.97;98.51
31005;BME280;17676;52.254;4.490;2023-04-03T09:39:18;103211.50;;;14.61;96.62
31005;BME280;17676;52.254;4.490;2023-04-03T09:42:05;103208.19;;;15.58;94.99
31005;BME280;17676;52.254;4.490;2023-04-03T09:44:38;103224.75;;;15.79;92.83
31005;BME280;17676;52.254;4.490;2023-04-03T09:47:28;103205.06;;;15.16;95.49
31005;BME280;17676;52.254;4.490;2023-04-03T09:50:18;103217.09;;;16.26;89.98
31005;BME280;17676;52.254;4.490;2023-04-03T09:52:49;103215.09;;;14.93;87.50
31005;BME280;17676;52.254;4.490;2023-04-03T09:55:19;103203.97;;;15.02;86.39
31005;BME280;17676;52.254;4.490;2023-04-03T09:57:47;103210.84;;;14.51;92.90
31005;BME280;17676;52.254;4.490;2023-04-03T10:00:37;103191.63;;;14.83;89.46
31005;BME280;17676;52.254;4.490;2023-04-03T10:03:28;103189.31;;;14.64;86.29
31005;BME280;17676;52.254;4.490;2023-04-03T10:05:55;103175.28;;;15.37;86.12
31005;BME280;17676;52.254;4.490;2023-04-03T10:11:15;103181.06;;;15.79;79.66
31005;BME280;17676;52.254;4.490;2023-04-03T10:13:53;103177.19;;;15.06;79.80
31005;BME280;17676;52.254;4.490;2023-04-03T10:16:25;103186.41;;;15.72;82.45
31005;BME280;17676;52.254;4.490;2023-04-03T10:25:16;103198.66;;;15.76;80.66
31005;BME280;17676;52.254;4.490;2023-04-03T10:39:04;103168.78;;;14.84;71.78
31005;BME280;17676;52.254;4.490;2023-04-03T10:52:53;103195.81;;;15.70;64.45
31005;BME280;17676;52.254;4.490;2023-04-03T10:56:03;103173.31;;;15.23;69.56
31005;BME280;17676;52.254;4.490;2023-04-03T10:58:30;103179.72;;;15.75;65.49
31005;BME280;17676;52.254;4.490;2023-04-03T11:01:02;103180.44;;;15.01;69.10
31005;BME280;17676;52.254;4.490;2023-04-03T11:03:44;103157.13;;;15.44;69.69
31005;BME280;17676;52.254;4.490;2023-04-03T11:06:13;103165.78;;;15.47;69.84
31005;BME280;17676;52.254;4.490;2023-04-03T11:08:44;103173.91;;;15.10;67.05
31005;BME280;17676;52.254;4.490;2023-04-03T11:11:23;103184.69;;;14.73;67.81
31005;BME280;17676;52.254;4.490;2023-04-03T11:14:11;103172.16;;;14.64;63.90
31005;BME280;17676;52.254;4.490;2023-04-03T11:16:47;103187.25;;;14.74;65.23
31005;BME280;17676;52.254;4.490;2023-04-03T11:19:49;103163.38;;;15.30;73.37
31005;BME280;17676;52.254;4.490;2023-04-03T11:22:36;103168.13;;;15.36;68.44
31005;BME280;17676;52.254;4.490;2023-04-03T11:27:42;103154.19;;;14.47;66.30
31005;BME280;17676;52.254;4.490;2023-04-03T11:30:19;103143.81;;;13.48;66.63
31005;BME280;17676;52.254;4.490;2023-04-03T11:35:32;103132.22;;;13.70;67.33
31005;BME280;17676;52.254;4.490;2023-04-03T11:38:00;103139.50;;;14.48;72.54
31005;BME280;17676;52.254;4.490;2023-04-03T11:40:33;103136.06;;;14.07;66.30
31005;BME280;17676;52.254;4.490;2023-04-03T11:45:49;103108.56;;;13.78;68.68
31005;BME280;17676;52.254;4.490;2023-04-03T11:50:45;103098.66;;;14.01;67.90
31005;BME280;17676;52.254;4.490;2023-04-03T11:58:21;103086.13;;;14.61;65.84
31005;BME280;17676;52.254;4.490;2023-04-03T12:05:50;103085.09;;;14.32;63.16
31005;BME280;17676;52.254;4.490;2023-04-03T12:08:26;103091.16;;;13.95;64.70
31005;BME280;17676;52.254;4.490;2023-04-03T12:26:50;103081.78;;;13.19;69.97
31005;BME280;17676;52.254;4.490;2023-04-03T12:32:26;103087.22;;;13.11;66.37
31005;BME280;17676;52.254;4.490;2023-04-03T12:40:41;103067.03;;;13.06;67.95
31005;BME280;17676;52.254;4.490;2023-04-03T12:43:17;103068.50;;;12.92;67.43
31005;BME280;17676;52.254;4.490;2023-04-03T12:51:31;103059.50;;;12.18;66.67
31005;BME280;17676;52.254;4.490;2023-04-03T12:54:03;103077.47;;;12.03;68.51
31005;BME280;17676;52.254;4.490;2023-04-03T12:56:35;103044.59;;;12.22;72.83
31005;BME280;17676;52.254;4.490;2023-04-03T12:59:20;103053.34;;;12.58;73.88
31005;BME280;17676;52.254;4.490;2023-04-03T13:02:17;103045.97;;;12.26;71.19
31005;BME280;17676;52.254;4.490;2023-04-03T13:04:46;103043.91;;;12.20;72.56
31005;BME280;17676;52.254;4.490;2023-04-03T13:07:45;103058.88;;;12.24;71.92
31005;BME280;17676;52.254;4.490;2023-04-03T13:10:16;103027.22;;;11.99;70.63
31005;BME280;17676;52.254;4.490;2023-04-03T13:12:49;103044.25;;;12.25;72.18
31005;BME280;17676;52.254;4.490;2023-04-03T13:15:22;103063.31;;;11.92;70.20
31005;BME280;17676;52.254;4.490;2023-04-03T13:17:53;103051.25;;;11.94;71.27
31005;BME280;17676;52.254;4.490;2023-04-03T13:20:39;103049.22;;;12.30;70.28
31005;BME280;17676;52.254;4.490;2023-04-03T13:23:07;103024.09;;;12.36;72.03
31005;BME280;17676;52.254;4.490;2023-04-03T13:25:36;103045.66;;;12.37;72.83
31005;BME280;17676;52.254;4.490;2023-04-03T13:28:09;103016.22;;;12.09;72.38
31005;BME280;17676;52.254;4.490;2023-04-03T13:30:38;103019.34;;;12.30;75.48
31005;BME280;17676;52.254;4.490;2023-04-03T13:33:26;103026.34;;;12.56;73.82
31005;BME280;17676;52.254;4.490;2023-04-03T13:36:17;103012.03;;;12.38;71.99
31005;BME280;17676;52.254;4.490;2023-04-03T13:38:44;103002.47;;;12.10;73.37
31005;BME280;17676;52.254;4.490;2023-04-03T13:41:47;103023.53;;;12.16;74.21
31005;BME280;17676;52.254;4.490;2023-04-03T13:47:00;103005.81;;;11.88;75.66
31005;BME280;17676;52.254;4.490;2023-04-03T13:51:52;103014.69;;;12.14;74.41
31005;BME280;17676;52.254;4.490;2023-04-03T13:54:32;103007.47;;;12.31;75.33
31005;BME280;17676;52.254;4.490;2023-04-03T13:57:00;103008.09;;;12.09;74.30
31005;BME280;17676;52.254;4.490;2023-04-03T13:59:36;103010.97;;;12.07;76.08
31005;BME280;17676;52.254;4.490;2023-04-03T14:04:30;103018.81;;;12.34;77.20
31005;BME280;17676;52.254;4.490;2023-04-03T14:06:56;103023.22;;;12.19;76.86
31005;BME280;17676;52.254;4.490;2023-04-03T14:09:24;103000.84;;;12.41;80.01
31005;BME280;17676;52.254;4.490;2023-04-03T14:11:59;102990.84;;;12.50;79.69
31005;BME280;17676;52.254;4.490;2023-04-03T14:14:31;103004.28;;;12.59;78.56
31005;BME280;17676;52.254;4.490;2023-04-03T14:17:00;102999.50;;;12.45;76.49
31005;BME280;17676;52.254;4.490;2023-04-03T14:19:32;102980.59;;;12.20;78.07
31005;BME280;17676;52.254;4.490;2023-04-03T14:21:59;102970.97;;;12.33;83.24
31005;BME280;17676;52.254;4.490;2023-04-03T14:24:29;102975.22;;;12.52;77.60
31005;BME280;17676;52.254;4.490;2023-04-03T14:26:55;102965.31;;;12.11;72.69
31005;BME280;17676;52.254;4.490;2023-04-03T14:29:22;102981.81;;;12.33;76.49
31005;BME280;17676;52.254;4.490;2023-04-03T14:31:50;102974.63;;;12.00;72.09
31005;BME280;17676;52.254;4.490;2023-04-03T14:34:16;102961.16;;;11.75;75.89
31005;BME280;17676;52.254;4.490;2023-04-03T14:36:44;102975.28;;;11.94;76.11
31005;BME280;17676;52.254;4.490;2023-04-03T14:39:16;102966.84;;;12.05;76.95
31005;BME280;17676;52.254;4.490;2023-04-03T14:41:43;102974.59;;;11.92;77.29
31005;BME280;17676;52.254;4.490;2023-04-03T14:44:09;102999.91;;;11.93;74.71
31005;BME280;17676;52.254;4.490;2023-04-03T14:46:39;102973.59;;;12.01;79.14
31005;BME280;17676;52.254;4.490;2023-04-03T14:49:20;102974.97;;;11.97;80.34
31005;BME280;17676;52.254;4.490;2023-04-03T14:51:58;102983.16;;;12.13;77.53
31005;BME280;17676;52.254;4.490;2023-04-03T14:54:24;102971.13;;;12.24;77.89
31005;BME280;17676;52.254;4.490;2023-04-03T14:56:55;102958.25;;;12.26;76.96
31005;BME280;17676;52.254;4.490;2023-04-03T14:59:22;102962.31;;;12.22;77.22
31005;BME280;17676;52.254;4.490;2023-04-03T15:01:49;102964.47;;;12.18;78.06